Time;durP1;ratioP1;P1;durP2;ratioP2;P2;SDS_P1;SDS_P2;PMS_P1;PMS_P2;Temp;Humidity;BMP_temperature;BMP_pressure;BME280_temperature;BME280_humidity;BME280_pressure;Samples;Min_cycle;Max_cycle;Signal;HPM_P1;HPM_P2
2021/11/21 00:01:58;;;;;;;18.40;11.43;;;4.40;85.80;;;;;;5037513;28;20049;-68
2021/11/21 00:04:24;;;;;;;18.88;11.55;;;4.40;85.80;;;;;;5040055;28;20714;-68
2021/11/21 00:06:49;;;;;;;20.05;11.73;;;4.40;86.00;;;;;;5036959;28;20033;-68
2021/11/21 00:09:15;;;;;;;19.88;11.77;;;4.40;86.00;;;;;;5040371;28;20029;-68
2021/11/21 00:11:41;;;;;;;19.58;11.57;;;4.50;86.10;;;;;;5034695;28;20052;-68
2021/11/21 00:14:07;;;;;;;19.10;11.70;;;4.50;86.10;;;;;;5043057;28;20090;-67
2021/11/21 00:16:34;;;;;;;21.38;12.65;;;4.50;86.10;;;;;;5039319;28;20469;-67
2021/11/21 00:19:00;;;;;;;19.98;11.93;;;4.50;86.00;;;;;;5044327;28;20025;-67
2021/11/21 00:21:25;;;;;;;20.70;12.20;;;4.50;86.00;;;;;;5045292;28;20036;-68
2021/11/21 00:23:51;;;;;;;19.17;11.68;;;4.50;86.00;;;;;;5047156;28;20029;-68
2021/11/21 00:26:17;;;;;;;19.15;11.60;;;4.50;86.00;;;;;;5039269;28;20615;-67
2021/11/21 00:28:43;;;;;;;19.77;11.73;;;4.50;85.80;;;;;;5040692;28;20040;-67
2021/11/21 00:31:09;;;;;;;18.45;11.35;;;4.50;85.60;;;;;;5046249;28;20572;-68
2021/11/21 00:33:35;;;;;;;23.83;12.38;;;4.50;85.60;;;;;;5038720;28;20053;-68
2021/11/21 00:36:00;;;;;;;18.85;11.70;;;4.50;85.60;;;;;;5041365;28;20174;-67
2021/11/21 00:38:26;;;;;;;19.48;11.65;;;4.50;85.80;;;;;;5036223;28;20025;-68
2021/11/21 00:40:52;;;;;;;19.23;11.55;;;4.50;85.80;;;;;;5038075;28;20412;-68
2021/11/21 00:43:20;;;;;;;19.75;12.18;;;4.50;85.80;;;;;;5045720;28;20025;-68
2021/11/21 00:45:46;;;;;;;18.55;11.48;;;4.50;85.80;;;;;;5044726;28;20045;-68
2021/11/21 00:48:18;;;;;;;19.20;11.30;;;4.50;85.80;;;;;;5039028;28;20068;-67
2021/11/21 00:50:44;;;;;;;20.02;12.27;;;4.50;85.80;;;;;;5041093;28;20492;-68
2021/11/21 00:53:10;;;;;;;18.55;11.52;;;4.50;85.80;;;;;;5038275;28;20053;-68
2021/11/21 00:55:43;;;;;;;19.45;11.77;;;4.50;85.80;;;;;;5040525;28;20036;-67
2021/11/21 00:58:11;;;;;;;20.67;12.30;;;4.50;85.80;;;;;;5044180;28;20039;-68
2021/11/21 01:00:43;;;;;;;20.05;12.35;;;4.60;86.00;;;;;;5044232;28;20512;-68
2021/11/21 01:03:12;;;;;;;21.10;12.88;;;4.50;85.80;;;;;;5039069;28;20044;-67
2021/11/21 01:05:40;;;;;;;20.55;12.50;;;4.60;85.80;;;;;;5038569;28;20112;-67
2021/11/21 01:08:06;;;;;;;20.45;12.00;;;4.60;85.80;;;;;;5037405;28;20084;-67
2021/11/21 01:10:32;;;;;;;21.02;12.98;;;4.60;85.70;;;;;;5036309;28;20544;-68
2021/11/21 01:12:58;;;;;;;20.20;12.48;;;4.60;85.70;;;;;;5035856;28;20482;-68
2021/11/21 01:15:25;;;;;;;22.00;13.48;;;4.60;85.80;;;;;;5033562;28;20053;-64
2021/11/21 01:17:53;;;;;;;22.27;13.13;;;4.60;85.80;;;;;;5041649;28;20033;-68
2021/11/21 01:20:20;;;;;;;20.27;12.68;;;4.60;85.70;;;;;;5038389;28;20036;-69
2021/11/21 01:22:46;;;;;;;20.67;11.95;;;4.60;85.70;;;;;;5039948;28;20033;-68
2021/11/21 01:25:13;;;;;;;21.48;12.60;;;4.70;85.80;;;;;;5038789;28;20036;-68
2021/11/21 01:27:40;;;;;;;21.33;13.35;;;4.70;85.80;;;;;;5039310;28;21851;-67
2021/11/21 01:30:09;;;;;;;23.70;14.45;;;4.70;85.60;;;;;;5040892;28;20059;-68
2021/11/21 01:32:35;;;;;;;19.58;12.23;;;4.70;85.60;;;;;;5038014;28;20041;-67
2021/11/21 01:35:01;;;;;;;19.98;12.43;;;4.70;85.60;;;;;;5042070;28;20099;-68
2021/11/21 01:37:27;;;;;;;19.60;11.85;;;4.70;85.60;;;;;;5044496;28;20116;-68
2021/11/21 01:39:52;;;;;;;18.60;11.57;;;4.70;85.60;;;;;;5039900;28;20078;-68
2021/11/21 01:42:19;;;;;;;17.23;10.88;;;4.70;85.60;;;;;;5042445;28;20033;-67
2021/11/21 01:44:44;;;;;;;18.92;11.80;;;4.70;85.50;;;;;;5042997;28;20636;-67
2021/11/21 01:47:10;;;;;;;18.33;11.05;;;4.70;85.50;;;;;;5045067;28;20055;-67
2021/11/21 01:49:36;;;;;;;16.85;11.40;;;4.70;85.50;;;;;;5042822;28;20032;-68
2021/11/21 01:52:02;;;;;;;17.92;10.57;;;4.70;85.40;;;;;;5043961;28;20037;-67
2021/11/21 01:54:28;;;;;;;18.42;10.82;;;4.70;85.40;;;;;;5040174;28;20412;-67
2021/11/21 01:56:54;;;;;;;18.25;11.40;;;4.70;85.30;;;;;;5045638;28;20814;-68
2021/11/21 01:59:20;;;;;;;19.13;11.68;;;4.70;85.30;;;;;;5043602;28;20098;-67
2021/11/21 02:01:46;;;;;;;19.75;12.65;;;4.70;85.30;;;;;;5038902;28;20455;-67
2021/11/21 02:04:11;;;;;;;22.17;12.85;;;4.70;85.30;;;;;;5041030;28;20553;-66
2021/11/21 02:06:37;;;;;;;21.27;12.32;;;4.70;85.30;;;;;;5046520;28;20033;-68
2021/11/21 02:09:04;;;;;;;19.70;12.65;;;4.70;85.20;;;;;;5044028;28;20059;-68
2021/11/21 02:11:30;;;;;;;20.65;12.63;;;4.80;85.30;;;;;;5040337;28;20076;-68
2021/11/21 02:13:56;;;;;;;20.52;12.63;;;4.70;86.10;;;;;;5037216;28;20025;-67
2021/11/21 02:16:25;;;;;;;18.48;11.90;;;4.70;85.30;;;;;;5043618;28;20040;-67
2021/11/21 02:18:51;;;;;;;19.15;12.32;;;4.70;85.30;;;;;;5038315;28;20037;-67
2021/11/21 02:21:18;;;;;;;18.25;11.93;;;4.70;85.30;;;;;;5042107;28;20037;-68
2021/11/21 02:23:46;;;;;;;19.30;12.40;;;4.70;85.20;;;;;;5045827;28;20443;-68
2021/11/21 02:26:14;;;;;;;20.63;11.48;;;4.70;85.30;;;;;;5040396;28;20045;-67
2021/11/21 02:28:40;;;;;;;18.42;11.05;;;4.70;85.30;;;;;;5044004;28;20471;-67
2021/11/21 02:31:06;;;;;;;18.58;11.88;;;4.70;85.20;;;;;;5047481;28;20040;-68
2021/11/21 02:33:32;;;;;;;19.40;11.98;;;4.70;85.10;;;;;;5040199;28;20041;-68
2021/11/21 02:35:59;;;;;;;18.65;11.52;;;4.70;85.10;;;;;;5041741;28;20033;-67
2021/11/21 02:38:26;;;;;;;19.23;11.75;;;4.70;85.10;;;;;;5043534;28;20029;-67
2021/11/21 02:40:54;;;;;;;17.77;11.32;;;4.70;85.10;;;;;;5042022;28;20116;-67
2021/11/21 02:43:21;;;;;;;20.05;12.18;;;4.70;85.10;;;;;;5041934;28;20029;-67
2021/11/21 02:45:49;;;;;;;18.10;11.10;;;4.70;85.00;;;;;;5040284;28;20035;-68
2021/11/21 02:48:20;;;;;;;17.55;11.52;;;4.70;84.90;;;;;;5042512;28;20551;-67
2021/11/21 02:50:46;;;;;;;17.45;11.23;;;4.70;85.00;;;;;;5041989;28;20191;-68
2021/11/21 02:53:17;;;;;;;18.40;11.32;;;4.70;85.10;;;;;;5045422;28;20167;-67
2021/11/21 02:55:44;;;;;;;19.60;11.73;;;4.70;85.10;;;;;;5039031;28;20499;-67
2021/11/21 02:58:10;;;;;;;18.17;11.55;;;4.70;85.10;;;;;;5041177;28;20098;-67
2021/11/21 03:00:38;;;;;;;19.15;11.60;;;4.70;85.10;;;;;;5042000;28;20151;-67
2021/11/21 03:03:03;;;;;;;18.60;11.20;;;4.70;86.00;;;;;;5043705;28;20032;-68
2021/11/21 03:05:31;;;;;;;20.35;11.43;;;4.60;86.00;;;;;;5037494;28;20032;-68
2021/11/21 03:07:57;;;;;;;17.35;10.82;;;4.60;85.10;;;;;;5042647;28;20056;-68
2021/11/21 03:10:23;;;;;;;18.90;11.52;;;4.60;85.10;;;;;;5042145;28;20495;-68
2021/11/21 03:13:00;;;;;;;18.02;11.20;;;4.70;85.10;;;;;;5038420;28;20385;-67
2021/11/21 03:15:26;;;;;;;20.00;12.35;;;4.60;85.00;;;;;;5045998;28;20120;-67
2021/11/21 03:17:53;;;;;;;17.63;11.15;;;4.60;85.10;;;;;;5045398;28;20037;-67
2021/11/21 03:20:23;;;;;;;19.85;11.98;;;4.60;85.10;;;;;;5042100;28;20035;-68
2021/11/21 03:22:49;;;;;;;18.98;11.27;;;4.60;85.00;;;;;;5039017;28;20036;-67
2021/11/21 03:25:15;;;;;;;17.83;10.82;;;4.60;84.90;;;;;;5045425;28;20033;-67
2021/11/21 03:27:41;;;;;;;16.80;10.80;;;4.60;84.90;;;;;;5039286;28;20391;-67
2021/11/21 03:30:11;;;;;;;18.23;11.00;;;4.60;84.90;;;;;;5041635;28;20032;-67
2021/11/21 03:32:37;;;;;;;18.85;11.88;;;4.50;84.90;;;;;;5038406;28;20118;-67
2021/11/21 03:35:04;;;;;;;19.33;12.00;;;4.50;85.00;;;;;;5039763;28;20074;-67
2021/11/21 03:37:30;;;;;;;19.23;12.00;;;4.50;85.00;;;;;;5043179;28;20377;-68
2021/11/21 03:39:55;;;;;;;18.38;11.13;;;4.50;86.00;;;;;;5039297;28;20032;-68
2021/11/21 03:42:21;;;;;;;19.38;11.50;;;4.40;85.10;;;;;;5043577;28;20025;-65
2021/11/21 03:44:47;;;;;;;19.20;11.07;;;4.50;85.10;;;;;;5032875;28;20040;-67
2021/11/21 03:47:12;;;;;;;19.10;11.40;;;4.40;85.10;;;;;;5043170;28;20051;-67
2021/11/21 03:49:38;;;;;;;19.02;11.73;;;4.40;85.10;;;;;;5040394;28;20687;-68
2021/11/21 03:52:05;;;;;;;19.35;11.65;;;4.50;85.20;;;;;;5040001;28;20100;-67
2021/11/21 03:54:30;;;;;;;19.08;11.68;;;4.40;85.10;;;;;;5042917;28;20451;-67
2021/11/21 03:56:56;;;;;;;20.13;12.32;;;4.40;85.10;;;;;;5041474;28;20036;-67
2021/11/21 03:59:22;;;;;;;21.35;12.45;;;4.40;85.30;;;;;;5040012;28;20037;-67
2021/11/21 04:01:49;;;;;;;18.77;11.68;;;4.40;85.30;;;;;;5042774;28;20040;-68
2021/11/21 04:04:14;;;;;;;21.30;12.95;;;4.40;85.40;;;;;;5036854;28;20029;-67
2021/11/21 04:06:40;;;;;;;23.35;12.43;;;4.40;85.40;;;;;;5042852;28;20048;-68
2021/11/21 04:09:07;;;;;;;21.95;12.75;;;4.40;85.40;;;;;;5041025;28;20116;-68
2021/11/21 04:11:33;;;;;;;20.80;12.45;;;4.40;85.40;;;;;;5039319;28;20030;-66
2021/11/21 04:14:00;;;;;;;21.10;12.30;;;4.40;85.40;;;;;;5039369;28;20040;-66
2021/11/21 04:16:26;;;;;;;22.02;13.02;;;4.40;85.40;;;;;;5039288;28;20040;-68
2021/11/21 04:18:53;;;;;;;21.08;13.05;;;4.40;85.50;;;;;;5042382;28;20029;-67
2021/11/21 04:21:19;;;;;;;20.35;12.32;;;4.40;85.60;;;;;;5043086;28;20104;-67
2021/11/21 04:23:44;;;;;;;20.75;12.88;;;4.40;85.60;;;;;;5041537;28;20120;-67
2021/11/21 04:26:10;;;;;;;20.90;12.77;;;4.40;85.60;;;;;;5043004;28;20044;-68
2021/11/21 04:28:36;;;;;;;21.17;12.82;;;4.40;85.80;;;;;;5041485;28;20029;-67
2021/11/21 04:31:03;;;;;;;21.00;12.43;;;4.40;85.80;;;;;;5040454;28;20067;-67
2021/11/21 04:33:29;;;;;;;20.52;12.52;;;4.40;85.70;;;;;;5035062;28;20033;-68
2021/11/21 04:35:55;;;;;;;20.75;12.55;;;4.40;85.80;;;;;;5039132;28;20281;-67
2021/11/21 04:38:22;;;;;;;21.83;13.25;;;4.40;85.80;;;;;;5037000;28;20036;-67
2021/11/21 04:40:49;;;;;;;20.08;12.63;;;4.40;85.70;;;;;;5036534;28;20036;-68
2021/11/21 04:43:15;;;;;;;19.55;11.88;;;4.50;85.70;;;;;;5037444;28;20037;-66
2021/11/21 04:45:41;;;;;;;20.23;12.20;;;4.50;85.60;;;;;;5038550;28;20064;-68
2021/11/21 04:48:07;;;;;;;19.92;11.73;;;4.50;85.60;;;;;;5038499;28;20063;-68
2021/11/21 04:50:32;;;;;;;19.45;12.57;;;4.50;85.50;;;;;;5037814;28;20037;-67
2021/11/21 04:52:58;;;;;;;20.55;12.63;;;4.50;85.60;;;;;;5042184;28;20039;-68
2021/11/21 04:55:24;;;;;;;21.65;12.73;;;4.50;85.50;;;;;;5042194;28;20041;-67
2021/11/21 04:57:49;;;;;;;21.13;12.70;;;4.50;85.40;;;;;;5036848;28;20520;-67
2021/11/21 05:00:19;;;;;;;21.67;13.10;;;4.60;85.50;;;;;;5041600;28;22553;-68
2021/11/21 05:02:46;;;;;;;20.05;11.35;;;4.50;85.40;;;;;;5041792;28;20044;-67
2021/11/21 05:05:13;;;;;;;19.95;11.95;;;4.50;85.30;;;;;;5040222;28;20040;-66
2021/11/21 05:07:39;;;;;;;20.73;12.80;;;4.50;85.40;;;;;;5041011;28;20053;-68
2021/11/21 05:10:05;;;;;;;278.23;94.07;;;4.60;85.40;;;;;;5042648;28;20061;-67
2021/11/21 05:12:31;;;;;;;51.38;26.58;;;4.60;85.40;;;;;;5039620;28;20373;-68
2021/11/21 05:14:59;;;;;;;26.83;15.65;;;4.60;85.30;;;;;;5046725;28;20040;-67
2021/11/21 05:17:24;;;;;;;22.60;14.23;;;4.60;85.30;;;;;;5042172;28;21763;-68
2021/11/21 05:19:50;;;;;;;21.02;13.07;;;4.60;85.30;;;;;;5044877;28;20045;-68
2021/11/21 05:22:16;;;;;;;21.08;13.35;;;4.60;85.30;;;;;;5044627;28;20542;-67
2021/11/21 05:24:41;;;;;;;22.45;13.30;;;4.60;85.30;;;;;;5040683;28;20112;-68
2021/11/21 05:27:07;;;;;;;20.45;12.63;;;4.60;85.20;;;;;;5044743;28;20033;-67
2021/11/21 05:29:32;;;;;;;25.52;17.38;;;4.60;85.30;;;;;;5048714;28;20037;-67
2021/11/21 05:31:58;;;;;;;21.25;12.68;;;4.60;85.20;;;;;;5047239;28;20120;-66
2021/11/21 05:34:24;;;;;;;19.38;12.68;;;4.60;85.20;;;;;;5041106;28;20090;-68
2021/11/21 05:36:49;;;;;;;18.88;11.75;;;4.60;85.20;;;;;;5043258;28;20524;-67
2021/11/21 05:39:16;;;;;;;19.98;12.77;;;4.60;85.10;;;;;;5041776;28;20041;-68
2021/11/21 05:41:42;;;;;;;18.35;12.05;;;4.60;85.00;;;;;;5043797;28;20036;-68
2021/11/21 05:44:08;;;;;;;21.17;12.43;;;4.60;85.10;;;;;;5043168;28;20045;-67
2021/11/21 05:46:34;;;;;;;20.63;13.20;;;4.60;85.10;;;;;;5048017;28;20461;-68
2021/11/21 05:49:00;;;;;;;20.08;12.88;;;4.60;85.20;;;;;;5042102;28;20041;-67
2021/11/21 05:51:25;;;;;;;20.55;12.38;;;4.60;85.10;;;;;;5045889;28;20021;-68
2021/11/21 05:53:52;;;;;;;19.55;11.95;;;4.60;85.10;;;;;;5042190;28;20036;-67
2021/11/21 05:56:19;;;;;;;20.35;11.63;;;4.60;85.10;;;;;;5043350;28;20037;-67
2021/11/21 05:58:47;;;;;;;19.85;12.45;;;4.60;85.10;;;;;;5043231;28;20034;-67
2021/11/21 06:01:14;;;;;;;18.27;11.45;;;4.60;84.90;;;;;;5046367;28;20033;-68
2021/11/21 06:03:39;;;;;;;20.45;12.75;;;4.60;84.90;;;;;;5042789;28;20222;-68
2021/11/21 06:06:05;;;;;;;17.48;10.88;;;4.60;84.80;;;;;;5042269;28;20040;-67
2021/11/21 06:08:30;;;;;;;19.05;12.35;;;4.60;84.70;;;;;;5044544;28;20029;-67
2021/11/21 06:10:56;;;;;;;24.70;14.73;;;4.60;84.70;;;;;;5044241;28;20129;-68
2021/11/21 06:13:24;;;;;;;19.63;11.57;;;4.50;84.70;;;;;;5045284;28;20056;-68
2021/11/21 06:15:50;;;;;;;17.65;11.63;;;4.50;84.80;;;;;;5045472;28;20037;-68
2021/11/21 06:18:16;;;;;;;16.55;10.35;;;4.40;84.80;;;;;;5038748;28;20037;-68
2021/11/21 06:20:42;;;;;;;18.38;11.85;;;4.40;84.80;;;;;;5037657;28;21591;-68
2021/11/21 06:23:09;;;;;;;19.40;11.77;;;4.40;84.80;;;;;;5046461;28;20420;-67
2021/11/21 06:25:35;;;;;;;18.33;11.43;;;4.40;85.00;;;;;;5042832;28;20127;-68
2021/11/21 06:28:00;;;;;;;17.75;10.80;;;4.30;84.90;;;;;;5040539;28;20132;-68
2021/11/21 06:30:26;;;;;;;18.27;11.40;;;4.30;84.90;;;;;;5043692;28;20124;-67
2021/11/21 06:32:51;;;;;;;18.38;10.65;;;4.30;85.00;;;;;;5037583;28;20029;-68
2021/11/21 06:35:17;;;;;;;17.80;10.68;;;4.30;85.10;;;;;;5036671;28;20059;-66
2021/11/21 06:37:44;;;;;;;16.95;10.35;;;4.30;85.10;;;;;;5038933;28;20033;-67
2021/11/21 06:40:12;;;;;;;18.45;10.95;;;4.20;84.90;;;;;;5037339;28;20021;-68
2021/11/21 06:42:38;;;;;;;16.17;10.57;;;4.20;84.90;;;;;;5036346;28;20056;-66
2021/11/21 06:45:04;;;;;;;18.77;10.65;;;4.20;85.00;;;;;;5038982;28;20110;-67
2021/11/21 06:47:29;;;;;;;18.55;11.52;;;4.20;85.10;;;;;;5044250;28;20078;-67
2021/11/21 06:49:58;;;;;;;18.13;11.15;;;4.20;85.30;;;;;;5038617;28;20430;-67
2021/11/21 06:52:24;;;;;;;16.85;11.00;;;4.20;85.30;;;;;;5036546;28;20060;-68
2021/11/21 06:54:50;;;;;;;18.00;11.80;;;4.20;85.30;;;;;;5035814;28;20049;-66
2021/11/21 06:57:16;;;;;;;20.75;13.57;;;4.20;85.30;;;;;;5041645;28;20048;-68
2021/11/21 06:59:42;;;;;;;18.48;11.90;;;4.20;85.30;;;;;;5040248;28;20041;-68
2021/11/21 07:02:07;;;;;;;29.02;17.10;;;4.20;85.40;;;;;;5039677;28;20136;-68
2021/11/21 07:04:33;;;;;;;24.98;14.95;;;4.20;85.40;;;;;;5040652;28;20028;-68
2021/11/21 07:06:59;;;;;;;23.65;14.45;;;4.20;85.40;;;;;;5043031;28;20037;-67
2021/11/21 07:09:24;;;;;;;18.08;11.45;;;4.20;85.50;;;;;;5040269;28;20032;-68
2021/11/21 07:11:51;;;;;;;16.52;10.98;;;4.30;85.60;;;;;;5031128;28;20041;-67
2021/11/21 07:14:17;;;;;;;17.45;11.57;;;4.30;85.50;;;;;;5037475;28;20037;-68
2021/11/21 07:16:45;;;;;;;16.58;10.60;;;4.30;85.40;;;;;;5043614;28;20408;-67
2021/11/21 07:19:11;;;;;;;17.02;10.02;;;4.30;85.30;;;;;;5025291;28;20040;-67
2021/11/21 07:21:37;;;;;;;16.02;10.52;;;4.30;85.20;;;;;;5033056;28;20029;-66
2021/11/21 07:24:03;;;;;;;16.90;10.40;;;4.30;85.10;;;;;;5031491;28;20446;-67
2021/11/21 07:26:29;;;;;;;15.98;9.98;;;4.30;85.00;;;;;;5029023;28;20036;-68
2021/11/21 07:28:55;;;;;;;15.68;10.18;;;4.30;85.10;;;;;;5037005;28;20025;-67
2021/11/21 07:31:20;;;;;;;15.60;10.48;;;4.30;85.10;;;;;;5042527;28;20045;-65
2021/11/21 07:33:46;;;;;;;16.25;10.25;;;4.30;85.20;;;;;;5039878;28;20033;-67
2021/11/21 07:36:12;;;;;;;17.42;10.55;;;4.30;85.30;;;;;;5041031;28;20603;-68
2021/11/21 07:38:39;;;;;;;16.33;10.40;;;4.30;85.30;;;;;;5042047;28;20036;-67
2021/11/21 07:41:05;;;;;;;15.05;9.98;;;4.30;85.30;;;;;;5041161;28;20113;-66
2021/11/21 07:43:30;;;;;;;16.02;10.63;;;4.30;85.40;;;;;;5041962;28;20112;-68
2021/11/21 07:45:58;;;;;;;15.40;9.88;;;4.30;85.40;;;;;;5037169;28;20505;-66
2021/11/21 07:48:24;;;;;;;15.10;9.70;;;4.30;85.40;;;;;;5039928;28;20044;-67
2021/11/21 07:50:50;;;;;;;14.55;9.70;;;4.30;85.50;;;;;;5038331;28;20029;-67
2021/11/21 07:53:15;;;;;;;14.68;9.75;;;4.30;85.60;;;;;;5039323;28;20037;-66
2021/11/21 07:55:41;;;;;;;16.13;9.45;;;4.40;85.60;;;;;;5038691;28;20497;-67
2021/11/21 07:58:07;;;;;;;16.85;9.88;;;4.40;85.50;;;;;;5041149;28;20036;-67
2021/11/21 08:00:34;;;;;;;14.07;9.60;;;4.40;85.40;;;;;;5039625;28;20040;-66
2021/11/21 08:03:00;;;;;;;16.52;9.63;;;4.40;85.40;;;;;;5037861;28;20053;-66
2021/11/21 08:05:27;;;;;;;15.15;9.40;;;4.40;85.30;;;;;;5041196;28;20567;-65
2021/11/21 08:07:52;;;;;;;16.75;10.40;;;4.40;85.40;;;;;;5041853;28;20040;-66
2021/11/21 08:10:18;;;;;;;15.13;10.10;;;4.40;85.50;;;;;;5039300;28;20029;-66
2021/11/21 08:12:44;;;;;;;14.25;9.57;;;4.40;85.60;;;;;;5037728;28;20419;-67
2021/11/21 08:15:10;;;;;;;17.05;10.27;;;4.50;85.70;;;;;;5032597;28;20055;-67
2021/11/21 08:17:36;;;;;;;15.18;9.93;;;4.50;85.70;;;;;;5039413;28;20024;-67
2021/11/21 08:20:04;;;;;;;15.95;10.27;;;4.50;85.80;;;;;;5042006;28;20614;-68
2021/11/21 08:22:30;;;;;;;15.60;10.27;;;4.50;85.80;;;;;;5042294;28;20436;-67
2021/11/21 08:24:55;;;;;;;14.90;9.82;;;4.60;85.90;;;;;;5041788;28;20026;-67
2021/11/21 08:27:21;;;;;;;16.75;10.50;;;4.60;85.80;;;;;;5042481;28;20029;-67
2021/11/21 08:29:49;;;;;;;18.08;11.13;;;4.70;85.80;;;;;;5036950;28;20037;-68
2021/11/21 08:32:15;;;;;;;15.15;10.27;;;4.70;85.60;;;;;;5040088;28;20405;-68
2021/11/21 08:34:41;;;;;;;16.98;10.68;;;4.70;86.40;;;;;;5039562;28;20052;-67
2021/11/21 08:37:07;;;;;;;14.82;9.27;;;4.70;85.60;;;;;;5037769;28;20072;-67
2021/11/21 08:39:33;;;;;;;15.43;9.40;;;4.70;85.40;;;;;;5037416;28;20157;-67
2021/11/21 08:41:59;;;;;;;15.20;10.07;;;4.80;85.50;;;;;;5041617;28;20120;-67
2021/11/21 08:44:25;;;;;;;16.50;9.55;;;4.80;85.60;;;;;;5037046;28;20518;-67
2021/11/21 08:46:51;;;;;;;16.10;9.85;;;4.80;85.80;;;;;;5040563;28;20048;-67
2021/11/21 08:49:17;;;;;;;16.35;10.35;;;4.80;86.00;;;;;;5035044;28;20575;-66
2021/11/21 08:51:44;;;;;;;18.33;10.52;;;4.90;85.90;;;;;;5036911;28;20037;-68
2021/11/21 08:54:10;;;;;;;16.15;9.52;;;4.90;86.00;;;;;;5039042;28;20032;-68
2021/11/21 08:56:36;;;;;;;15.05;9.23;;;4.90;85.80;;;;;;5034343;28;20127;-67
2021/11/21 08:59:03;;;;;;;16.00;9.93;;;5.10;85.80;;;;;;5035360;28;20136;-66
2021/11/21 09:01:29;;;;;;;15.15;9.73;;;5.00;85.80;;;;;;5041892;28;20060;-67
2021/11/21 09:03:54;;;;;;;13.85;9.07;;;5.00;85.70;;;;;;5041238;28;20390;-65
2021/11/21 09:06:20;;;;;;;15.45;10.00;;;5.10;85.70;;;;;;5038144;28;20043;-67
2021/11/21 09:08:45;;;;;;;15.05;10.10;;;5.10;85.80;;;;;;5037996;28;20031;-66
2021/11/21 09:11:11;;;;;;;15.05;9.68;;;5.20;85.80;;;;;;5032946;28;20467;-67
2021/11/21 09:13:37;;;;;;;16.52;10.10;;;5.20;85.60;;;;;;5031266;28;20037;-68
2021/11/21 09:16:02;;;;;;;16.38;9.80;;;5.20;85.60;;;;;;5037796;28;20459;-67
2021/11/21 09:18:28;;;;;;;15.38;10.00;;;5.20;85.60;;;;;;5039467;28;20435;-67
2021/11/21 09:20:58;;;;;;;16.17;9.77;;;5.30;85.70;;;;;;5038437;28;20481;-67
2021/11/21 09:23:25;;;;;;;15.10;9.75;;;5.30;85.70;;;;;;5037419;28;20083;-66
2021/11/21 09:25:52;;;;;;;15.05;9.93;;;5.40;85.80;;;;;;5039550;28;20037;-67
2021/11/21 09:28:24;;;;;;;16.98;10.07;;;5.40;85.70;;;;;;5038733;28;20045;-67
2021/11/21 09:30:54;;;;;;;16.42;10.00;;;5.40;85.60;;;;;;5037576;28;20421;-67
2021/11/21 09:33:20;;;;;;;18.60;12.32;;;5.50;85.40;;;;;;5035284;28;20042;-67
2021/11/21 09:35:47;;;;;;;19.60;11.93;;;5.50;85.40;;;;;;5036578;28;20037;-67
2021/11/21 09:38:13;;;;;;;16.30;10.57;;;5.50;85.40;;;;;;5031760;28;20034;-66
2021/11/21 09:40:39;;;;;;;16.42;10.75;;;5.60;85.60;;;;;;5039896;28;20155;-67
2021/11/21 09:43:05;;;;;;;16.80;10.25;;;5.60;85.70;;;;;;5041670;28;20163;-67
2021/11/21 09:45:31;;;;;;;16.85;10.38;;;5.60;85.90;;;;;;5041794;28;20504;-67
2021/11/21 09:47:59;;;;;;;18.20;10.55;;;5.70;85.70;;;;;;5041700;28;20049;-66
2021/11/21 09:50:28;;;;;;;16.05;10.05;;;5.70;85.40;;;;;;5039031;28;20083;-65
2021/11/21 09:52:54;;;;;;;16.45;10.75;;;5.70;85.40;;;;;;5031942;28;20109;-67
2021/11/21 09:55:20;;;;;;;16.55;10.02;;;5.80;85.40;;;;;;5034473;28;20094;-66
2021/11/21 09:57:47;;;;;;;16.30;10.18;;;5.80;85.40;;;;;;5038315;28;20029;-67
2021/11/21 10:00:17;;;;;;;15.85;10.52;;;5.80;85.40;;;;;;5034055;28;20078;-66
2021/11/21 10:03:03;;;;;;;17.92;11.18;;;5.90;85.40;;;;;;5043440;28;20083;-66
2021/11/21 10:05:37;;;;;;;15.88;10.60;;;6.00;85.30;;;;;;5040399;28;20025;-66
2021/11/21 10:08:12;;;;;;;17.20;9.93;;;6.00;85.30;;;;;;5042749;28;20032;-66
2021/11/21 10:11:01;;;;;;;17.60;10.80;;;6.10;85.30;;;;;;5031468;28;20655;-68
2021/11/21 10:13:42;;;;;;;15.52;10.05;;;6.10;85.20;;;;;;5047376;28;20021;-67
2021/11/21 10:16:36;;;;;;;16.38;10.15;;;6.20;85.20;;;;;;5044127;28;20037;-67
2021/11/21 10:19:07;;;;;;;15.43;9.75;;;6.30;85.30;;;;;;5045194;28;20037;-67
2021/11/21 10:21:37;;;;;;;17.10;10.50;;;6.30;85.20;;;;;;5048176;28;20032;-68
2021/11/21 10:24:28;;;;;;;16.23;10.10;;;6.40;85.10;;;;;;5043949;28;20044;-68
2021/11/21 10:27:08;;;;;;;16.85;10.43;;;6.40;84.90;;;;;;5043851;28;20061;-67
2021/11/21 10:29:35;;;;;;;15.40;10.02;;;6.50;84.90;;;;;;5046066;28;20435;-67
2021/11/21 10:32:02;;;;;;;16.52;10.05;;;6.50;84.90;;;;;;5047580;28;20052;-68
2021/11/21 10:34:29;;;;;;;16.52;10.13;;;6.60;84.60;;;;;;5041658;28;20140;-67
2021/11/21 10:36:55;;;;;;;15.40;10.27;;;6.60;84.40;;;;;;5042608;28;20037;-67
2021/11/21 10:39:26;;;;;;;17.27;9.85;;;6.60;84.40;;;;;;5041597;28;20401;-67
2021/11/21 10:41:54;;;;;;;17.52;10.35;;;6.60;84.30;;;;;;5043959;28;20037;-67
2021/11/21 10:44:20;;;;;;;14.52;10.02;;;6.60;84.90;;;;;;5042199;28;20444;-67
2021/11/21 10:46:58;;;;;;;15.38;10.00;;;6.70;84.50;;;;;;5041650;28;20044;-67
2021/11/21 10:49:39;;;;;;;13.43;8.82;;;6.70;84.30;;;;;;5041182;28;20041;-68
2021/11/21 10:52:21;;;;;;;14.02;9.32;;;6.80;84.40;;;;;;5039917;28;20079;-67
2021/11/21 10:54:53;;;;;;;13.73;9.07;;;6.80;84.50;;;;;;5043740;28;20094;-66
2021/11/21 10:57:23;;;;;;;13.57;9.25;;;6.90;84.70;;;;;;5043159;28;20033;-67
2021/11/21 10:59:58;;;;;;;13.90;8.93;;;6.90;84.60;;;;;;5036578;28;20524;-67
2021/11/21 11:02:45;;;;;;;12.90;9.40;;;7.00;84.30;;;;;;5042951;28;20083;-69
2021/11/21 11:05:15;;;;;;;13.90;9.15;;;7.10;83.90;;;;;;5041510;28;20034;-67
2021/11/21 11:07:52;;;;;;;13.25;9.35;;;7.10;84.00;;;;;;5041624;28;20155;-67
2021/11/21 11:10:27;;;;;;;15.15;8.80;;;7.10;83.80;;;;;;5039349;28;20512;-67
2021/11/21 11:13:05;;;;;;;15.02;8.85;;;7.20;84.00;;;;;;5039413;28;20129;-66
2021/11/21 11:15:34;;;;;;;16.40;9.52;;;7.30;84.10;;;;;;5044001;28;20508;-67
2021/11/21 11:17:59;;;;;;;13.68;9.27;;;7.30;84.10;;;;;;5044299;28;20404;-67
2021/11/21 11:20:28;;;;;;;12.88;9.07;;;7.40;83.80;;;;;;5044065;28;20090;-68
2021/11/21 11:22:55;;;;;;;14.57;8.98;;;7.40;83.30;;;;;;5043397;28;20051;-67
2021/11/21 11:25:31;;;;;;;14.65;9.52;;;7.50;83.10;;;;;;5044817;28;20033;-67
2021/11/21 11:28:15;;;;;;;13.13;8.70;;;7.50;82.70;;;;;;5044616;28;20332;-66
2021/11/21 11:30:41;;;;;;;12.77;8.15;;;7.40;82.60;;;;;;5040388;28;20132;-67
2021/11/21 11:33:11;;;;;;;11.50;8.15;;;7.40;82.90;;;;;;5041191;28;20514;-66
2021/11/21 11:35:47;;;;;;;12.27;8.63;;;7.40;82.70;;;;;;5043677;28;20032;-67
2021/11/21 11:38:14;;;;;;;10.85;8.05;;;7.40;82.60;;;;;;5044615;28;20025;-67
2021/11/21 11:40:44;;;;;;;13.15;8.30;;;7.40;82.80;;;;;;5043806;28;20044;-66
2021/11/21 11:43:16;;;;;;;13.40;8.48;;;7.40;82.70;;;;;;5043096;28;20328;-67
2021/11/21 11:45:56;;;;;;;10.05;7.70;;;7.40;82.50;;;;;;5045163;28;20056;-67
2021/11/21 11:48:46;;;;;;;11.73;8.65;;;7.40;82.30;;;;;;5045944;28;20033;-68
2021/11/21 11:51:22;;;;;;;11.75;8.40;;;7.40;82.30;;;;;;5043420;28;20036;-68
2021/11/21 11:53:54;;;;;;;13.18;8.85;;;7.50;82.70;;;;;;5041215;28;20533;-67
2021/11/21 11:56:40;;;;;;;13.55;8.40;;;7.50;82.70;;;;;;5043009;28;20748;-67
2021/11/21 11:59:08;;;;;;;11.70;8.60;;;7.50;83.70;;;;;;5033280;28;20040;-67
2021/11/21 12:01:40;;;;;;;13.02;8.27;;;7.50;83.10;;;;;;5039930;28;20029;-68
2021/11/21 12:04:27;;;;;;;14.38;8.82;;;7.60;82.90;;;;;;5035274;28;20045;-67
2021/11/21 12:07:02;;;;;;;13.13;8.90;;;7.60;82.70;;;;;;5034574;28;20491;-67
2021/11/21 12:09:33;;;;;;;14.35;9.23;;;7.60;83.10;;;;;;5044872;28;20079;-67
2021/11/21 12:12:03;;;;;;;13.27;8.63;;;7.60;82.10;;;;;;5042353;28;20042;-65
2021/11/21 12:14:40;;;;;;;14.02;8.98;;;7.60;82.00;;;;;;5036700;28;20041;-67
2021/11/21 12:17:08;;;;;;;14.30;9.15;;;7.60;83.10;;;;;;5042526;28;20037;-67
2021/11/21 12:19:40;;;;;;;12.57;8.75;;;7.60;82.20;;;;;;5041806;28;20049;-67
2021/11/21 12:22:24;;;;;;;12.85;8.55;;;7.60;81.90;;;;;;5040713;28;20560;-67
2021/11/21 12:25:00;;;;;;;10.73;7.95;;;7.70;81.50;;;;;;5044160;28;20025;-67
2021/11/21 12:27:31;;;;;;;13.10;8.30;;;7.70;81.90;;;;;;5042678;28;20033;-67
2021/11/21 12:30:10;;;;;;;16.42;8.50;;;7.70;81.90;;;;;;5043037;28;20037;-65
2021/11/21 12:32:59;;;;;;;12.43;8.50;;;7.60;81.50;;;;;;5042535;28;20099;-67
2021/11/21 12:35:41;;;;;;;11.50;8.00;;;7.70;81.30;;;;;;5038938;28;20041;-66
2021/11/21 12:38:20;;;;;;;11.13;7.97;;;7.60;81.70;;;;;;5042299;28;20512;-67
2021/11/21 12:40:46;;;;;;;11.35;7.95;;;7.60;81.50;;;;;;5041588;28;20039;-67
2021/11/21 12:43:17;;;;;;;10.52;7.97;;;7.60;81.70;;;;;;5041022;28;20627;-67